Marysville, Montana
Current Conditions -  °F | °C
As of 4:53 PM on Friday 24 Oct 2014 (Local Time) from KHLN Reporting Station
Few Clouds Few Clouds  
Wind Chill: 55°   Ceiling: Unl
Heat Index: 55°   Visibility: 10mi
Dew Point: 40°   Wind: 8mph
Humidity: 57%   Direction: 110°ESE
Pressure: 30.08"   Gusts: NA
Location:  46.75°N, 112.3°W
Report Text: KHLN 242253Z AUTO 11007KT 10SM FEW060 13/04 A3008 RMK AO2 SLP194 T01280044 TSNO
Loading
Personal Weather Stations






























Interactive Weather Map
Tropical Storm Tracking
New forecast layout! Learn more

10-Day Weather Forecast

Advertisements
Track Severe Weather on mobile